createdAt,value
2022-10-05T00:00:22.803Z,82.74
2022-10-05T00:03:11.459Z,83.31
2022-10-05T00:05:39.542Z,82.52
2022-10-05T00:08:21.532Z,85.46
2022-10-05T00:10:49.022Z,84.24
2022-10-05T00:13:20.122Z,82.13
2022-10-05T00:15:48.335Z,83.64
2022-10-05T00:18:21.048Z,84.02
2022-10-05T00:20:49.383Z,83.03
2022-10-05T00:23:21.067Z,82.44
2022-10-05T00:25:48.089Z,81.11
2022-10-05T00:28:21.469Z,82.44
2022-10-05T00:30:48.528Z,86.40
2022-10-05T00:33:15.485Z,83.07
2022-10-05T00:35:42.322Z,82.29
2022-10-05T00:38:09.165Z,82.00
2022-10-05T00:40:45.335Z,82.35
2022-10-05T00:43:21.396Z,82.72
2022-10-05T00:45:56.579Z,82.37
2022-10-05T00:49:00.781Z,83.04
2022-10-05T00:51:44.196Z,84.59
2022-10-05T00:54:20.358Z,83.64
2022-10-05T00:57:02.139Z,84.04
2022-10-05T00:59:41.279Z,83.65
2022-10-05T01:02:37.110Z,83.56
2022-10-05T01:05:41.935Z,81.54
2022-10-05T01:08:17.583Z,84.16
2022-10-05T01:11:25.806Z,82.06
2022-10-05T01:14:28.490Z,82.82
2022-10-05T01:17:22.988Z,81.18
2022-10-05T01:20:20.962Z,81.54
2022-10-05T01:23:09.410Z,81.71
2022-10-05T01:26:21.051Z,81.88
2022-10-05T01:28:57.309Z,82.33
2022-10-05T01:31:30.289Z,81.38
2022-10-05T01:34:19.038Z,82.21
2022-10-05T01:36:51.594Z,85.31
2022-10-05T01:40:03.518Z,85.03
2022-10-05T01:42:52.572Z,84.27
2022-10-05T01:45:37.432Z,82.64
2022-10-05T01:48:19.232Z,81.10
2022-10-05T01:50:51.905Z,82.49
2022-10-05T01:53:36.051Z,81.28
2022-10-05T01:56:05.964Z,80.37
2022-10-05T01:58:32.727Z,80.89
2022-10-05T02:01:06.730Z,80.34
2022-10-05T02:03:39.508Z,80.33
2022-10-05T02:06:17.202Z,81.08
2022-10-05T02:08:53.878Z,82.43
2022-10-05T02:11:21.139Z,82.10
2022-10-05T02:14:01.185Z,80.34
2022-10-05T02:16:43.704Z,80.77
2022-10-05T02:19:20.584Z,79.50
2022-10-05T02:21:54.438Z,79.03
2022-10-05T02:24:26.759Z,79.22
2022-10-05T02:26:56.170Z,79.90
2022-10-05T02:29:27.091Z,79.91
2022-10-05T02:32:00.200Z,79.30
2022-10-05T02:34:36.894Z,79.41
2022-10-05T02:37:36.391Z,79.12
2022-10-05T02:40:19.418Z,79.19
2022-10-05T02:42:59.562Z,79.38
2022-10-05T02:45:35.090Z,79.65
2022-10-05T02:48:27.770Z,79.01
2022-10-05T02:51:10.176Z,78.99
2022-10-05T02:54:02.759Z,79.53
2022-10-05T02:56:52.395Z,79.03
2022-10-05T02:59:30.916Z,82.17
2022-10-05T03:02:03.159Z,80.80
2022-10-05T03:04:49.188Z,80.16
2022-10-05T03:07:41.428Z,80.91
2022-10-05T03:10:53.431Z,80.39
2022-10-05T03:13:29.650Z,80.37
2022-10-05T03:16:05.763Z,81.31
2022-10-05T03:19:12.129Z,81.03
2022-10-05T03:21:58.634Z,82.90
2022-10-05T03:24:43.735Z,82.58
2022-10-05T03:27:25.296Z,81.45
2022-10-05T03:30:09.372Z,81.88
2022-10-05T03:33:07.318Z,81.30
2022-10-05T03:36:07.489Z,82.17
2022-10-05T03:38:41.558Z,84.21
2022-10-05T03:41:26.561Z,85.48
2022-10-05T03:44:15.267Z,83.91
2022-10-05T03:47:09.570Z,83.29
2022-10-05T03:50:05.303Z,82.20
2022-10-05T03:52:46.068Z,82.43
2022-10-05T03:55:18.137Z,82.98
2022-10-05T03:57:48.473Z,81.79
2022-10-05T04:00:25.026Z,81.23
2022-10-05T04:03:16.659Z,81.18
2022-10-05T04:06:09.745Z,82.70
2022-10-05T04:08:51.917Z,81.51
2022-10-05T04:11:28.237Z,81.28
2022-10-05T04:14:22.664Z,82.59
2022-10-05T04:16:59.049Z,84.18
2022-10-05T04:20:09.203Z,82.75
2022-10-05T04:22:48.978Z,82.68
2022-10-05T04:25:30.642Z,81.87
2022-10-05T04:28:13.000Z,81.16
2022-10-05T04:30:45.334Z,81.37
2022-10-05T04:33:13.405Z,79.82
2022-10-05T04:35:49.875Z,79.60
2022-10-05T04:38:59.157Z,79.72
2022-10-05T04:42:07.133Z,80.17
2022-10-05T04:44:40.224Z,79.73
2022-10-05T04:47:13.621Z,79.41
2022-10-05T04:50:12.617Z,79.64
2022-10-05T04:52:57.597Z,78.98
2022-10-05T04:55:49.774Z,78.56
2022-10-05T04:58:40.054Z,79.01
2022-10-05T05:01:24.605Z,78.70
2022-10-05T05:04:21.013Z,78.56
2022-10-05T05:07:07.510Z,78.48
2022-10-05T05:09:47.730Z,77.82
2022-10-05T05:12:47.497Z,77.74
2022-10-05T05:15:38.913Z,77.63
2022-10-05T05:18:30.282Z,77.43
2022-10-05T05:21:18.881Z,77.79
2022-10-05T05:23:57.300Z,77.66
2022-10-05T05:26:40.122Z,77.80
2022-10-05T05:29:35.264Z,77.54
2022-10-05T05:32:28.794Z,77.04
2022-10-05T05:35:01.849Z,77.11
2022-10-05T05:37:45.019Z,77.29
2022-10-05T05:40:49.950Z,77.58
2022-10-05T05:43:48.129Z,77.39
2022-10-05T05:47:02.329Z,77.44
2022-10-05T05:50:09.992Z,77.05
2022-10-05T05:52:54.757Z,77.09
2022-10-05T05:55:39.113Z,77.33
2022-10-05T05:58:25.008Z,77.01
2022-10-05T06:00:56.451Z,77.06
2022-10-05T06:03:36.709Z,77.00
2022-10-05T06:06:13.724Z,76.88
2022-10-05T06:08:52.761Z,76.30
2022-10-05T06:12:02.377Z,75.99
2022-10-05T06:14:52.773Z,76.12
2022-10-05T06:17:38.665Z,76.20
2022-10-05T06:20:21.689Z,76.31
2022-10-05T06:22:50.749Z,75.74
2022-10-05T06:25:28.708Z,75.62
2022-10-05T06:28:08.704Z,75.42
2022-10-05T06:30:48.182Z,75.05
2022-10-05T06:33:37.447Z,74.47
2022-10-05T06:36:42.739Z,74.43
2022-10-05T06:39:41.281Z,75.08
2022-10-05T06:42:13.282Z,74.86
2022-10-05T06:45:53.948Z,74.88
2022-10-05T06:48:57.849Z,74.45
2022-10-05T06:52:02.474Z,74.04
2022-10-05T06:54:55.432Z,73.87
2022-10-05T06:57:49.521Z,73.52
2022-10-05T07:00:24.197Z,73.04
2022-10-05T07:03:09.964Z,73.18
2022-10-05T07:06:11.378Z,73.43
2022-10-05T07:08:59.943Z,73.36
2022-10-05T07:11:50.133Z,73.27
2022-10-05T07:14:25.886Z,72.74
2022-10-05T07:16:56.109Z,72.74
2022-10-05T07:19:44.670Z,72.33
2022-10-05T07:22:36.850Z,71.92
2022-10-05T07:25:20.186Z,72.21
2022-10-05T07:27:58.040Z,72.21
2022-10-05T07:30:24.975Z,71.65
2022-10-05T07:33:20.596Z,70.87
2022-10-05T07:36:27.695Z,70.61
2022-10-05T07:38:57.412Z,69.91
2022-10-05T07:41:27.521Z,67.51
2022-10-05T07:44:18.440Z,66.18
2022-10-05T07:46:56.337Z,65.49
2022-10-05T07:49:41.408Z,66.37
2022-10-05T07:52:21.667Z,66.24
2022-10-05T07:55:11.646Z,64.00
2022-10-05T07:57:53.861Z,64.29
2022-10-05T08:00:23.571Z,63.53
2022-10-05T08:03:10.736Z,63.22
2022-10-05T08:05:43.372Z,63.08
2022-10-05T08:08:10.031Z,61.99
2022-10-05T08:11:02.047Z,61.59
2022-10-05T08:13:32.813Z,61.64
2022-10-05T08:16:12.174Z,61.75
2022-10-05T08:18:48.378Z,61.19
2022-10-05T08:21:20.556Z,61.51
2022-10-05T08:23:59.578Z,60.11
2022-10-05T08:26:35.645Z,57.28
2022-10-05T08:29:34.022Z,59.15
2022-10-05T08:32:12.344Z,58.49
2022-10-05T08:35:00.390Z,58.23
2022-10-05T08:37:32.561Z,58.27
2022-10-05T08:40:32.582Z,58.39
2022-10-05T08:43:17.870Z,55.60
2022-10-05T08:46:17.309Z,55.53
2022-10-05T08:49:21.445Z,56.14
2022-10-05T08:52:06.445Z,53.87
2022-10-05T08:54:43.095Z,53.66
2022-10-05T08:57:47.777Z,52.14
2022-10-05T09:00:21.669Z,53.99
2022-10-05T09:03:13.215Z,53.20
2022-10-05T09:05:58.465Z,51.84
2022-10-05T09:08:53.369Z,52.08
2022-10-05T09:11:32.606Z,51.84
2022-10-05T09:14:18.395Z,50.39
2022-10-05T09:17:15.679Z,49.70
2022-10-05T09:19:52.913Z,48.17
2022-10-05T09:22:38.244Z,49.01
2022-10-05T09:25:16.651Z,48.26
2022-10-05T09:27:53.101Z,49.53
2022-10-05T09:30:40.998Z,48.45
2022-10-05T09:33:26.842Z,48.17
2022-10-05T09:36:02.581Z,49.99
2022-10-05T09:38:57.174Z,48.83
2022-10-05T09:41:53.068Z,48.22
2022-10-05T09:44:32.194Z,48.69
2022-10-05T09:47:21.206Z,49.15
2022-10-05T09:50:09.712Z,49.00
2022-10-05T09:52:58.146Z,49.19
2022-10-05T09:55:46.345Z,48.49
2022-10-05T09:58:32.863Z,49.88
2022-10-05T10:01:39.682Z,50.22
2022-10-05T10:04:25.525Z,50.61
2022-10-05T10:06:55.138Z,50.47
2022-10-05T10:09:41.127Z,48.68
2022-10-05T10:12:19.648Z,49.96
2022-10-05T10:15:15.268Z,50.99
2022-10-05T10:18:19.383Z,50.32
2022-10-05T10:21:21.768Z,50.09
2022-10-05T10:24:15.545Z,49.77
2022-10-05T10:26:56.415Z,49.22
2022-10-05T10:29:51.314Z,49.44
2022-10-05T10:32:40.125Z,49.46
2022-10-05T10:35:22.282Z,50.65
2022-10-05T10:38:02.168Z,49.89
2022-10-05T10:41:06.556Z,49.73
2022-10-05T10:43:57.735Z,49.33
2022-10-05T10:47:02.011Z,49.39
2022-10-05T10:50:06.459Z,48.82
2022-10-05T10:52:53.437Z,48.48
2022-10-05T10:55:38.438Z,49.37
2022-10-05T10:58:17.887Z,49.57
2022-10-05T11:01:15.071Z,49.48
2022-10-05T11:04:19.730Z,50.25
2022-10-05T11:07:05.261Z,49.68
2022-10-05T11:10:00.233Z,50.05
2022-10-05T11:12:29.831Z,49.34
2022-10-05T11:15:12.960Z,49.58
2022-10-05T11:17:55.364Z,49.69
2022-10-05T11:20:25.196Z,50.03
2022-10-05T11:22:55.203Z,50.17
2022-10-05T11:26:01.165Z,49.42
2022-10-05T11:28:39.853Z,48.96
2022-10-05T11:31:35.013Z,48.73
2022-10-05T11:34:28.088Z,48.78
2022-10-05T11:37:38.172Z,48.99
2022-10-05T11:40:43.055Z,48.02
2022-10-05T11:43:58.578Z,48.47
2022-10-05T11:46:53.484Z,49.00
2022-10-05T11:49:35.369Z,49.68
2022-10-05T11:52:25.325Z,49.77
2022-10-05T11:55:23.321Z,49.98
2022-10-05T11:58:07.141Z,49.81
2022-10-05T12:00:46.703Z,49.83
2022-10-05T12:03:27.227Z,48.36
2022-10-05T12:06:39.247Z,48.39
2022-10-05T12:09:20.943Z,48.24
2022-10-05T12:12:18.299Z,49.14
2022-10-05T12:15:17.316Z,49.02
2022-10-05T12:18:08.003Z,49.31
2022-10-05T12:21:32.506Z,48.52
2022-10-05T12:24:13.064Z,48.64
2022-10-05T12:26:44.219Z,48.46
2022-10-05T12:29:37.476Z,48.46
2022-10-05T12:32:08.518Z,48.83
2022-10-05T12:35:01.454Z,49.72
2022-10-05T12:38:04.109Z,48.66
2022-10-05T12:41:05.524Z,48.12
2022-10-05T12:43:32.569Z,47.97
2022-10-05T12:46:36.410Z,48.75
2022-10-05T12:49:41.422Z,48.37
2022-10-05T12:52:27.722Z,48.01
2022-10-05T12:55:10.030Z,47.94
2022-10-05T12:58:11.172Z,48.26
2022-10-05T13:00:51.092Z,48.18
2022-10-05T13:03:25.677Z,49.47
2022-10-05T13:06:05.214Z,49.12
2022-10-05T13:08:59.075Z,49.30
2022-10-05T13:11:40.975Z,49.26
2022-10-05T13:14:18.059Z,48.82
2022-10-05T13:17:14.018Z,49.41
2022-10-05T13:20:03.253Z,49.93
2022-10-05T13:22:43.104Z,50.69
2022-10-05T13:25:13.140Z,50.21
2022-10-05T13:28:25.367Z,50.62
2022-10-05T13:31:04.607Z,50.05
2022-10-05T13:33:31.581Z,50.20
2022-10-05T13:36:09.420Z,49.64
2022-10-05T13:38:59.711Z,49.77
2022-10-05T13:41:29.313Z,48.51
2022-10-05T13:44:25.546Z,49.39
2022-10-05T13:47:02.536Z,49.63
2022-10-05T13:49:42.121Z,50.12
2022-10-05T13:52:09.237Z,50.19
2022-10-05T13:54:50.632Z,50.69
2022-10-05T13:57:23.819Z,50.32
2022-10-05T13:59:58.056Z,50.72
2022-10-05T14:02:39.405Z,51.46
2022-10-05T14:05:18.438Z,52.35
2022-10-05T14:08:16.338Z,52.79
2022-10-05T14:10:46.543Z,52.47
2022-10-05T14:13:26.083Z,52.79
2022-10-05T14:16:16.077Z,52.67
2022-10-05T14:19:14.862Z,53.12
2022-10-05T14:21:54.296Z,53.51
2022-10-05T14:24:43.220Z,53.22
2022-10-05T14:27:22.289Z,53.40
2022-10-05T14:30:23.194Z,53.26
2022-10-05T14:33:03.805Z,53.24
2022-10-05T14:35:52.256Z,53.07
2022-10-05T14:38:29.596Z,53.29
2022-10-05T14:41:16.940Z,53.29
2022-10-05T14:44:03.377Z,53.24
2022-10-05T14:46:32.406Z,53.43
2022-10-05T14:49:21.847Z,53.64
2022-10-05T14:51:50.532Z,53.87
2022-10-05T14:54:40.719Z,54.16
2022-10-05T14:57:24.870Z,54.41
2022-10-05T15:00:11.180Z,54.69
2022-10-05T15:03:07.404Z,55.35
2022-10-05T15:05:52.098Z,56.32
2022-10-05T15:08:41.037Z,56.39
2022-10-05T15:11:19.856Z,56.91
2022-10-05T15:13:48.248Z,57.19
2022-10-05T15:16:24.431Z,57.70
2022-10-05T15:19:07.020Z,58.12
2022-10-05T15:21:49.012Z,58.03
2022-10-05T15:24:23.955Z,58.22
2022-10-05T15:26:53.285Z,58.90
2022-10-05T15:29:49.819Z,58.65
2022-10-05T15:32:34.152Z,58.39
2022-10-05T15:35:35.609Z,58.70
2022-10-05T15:38:20.271Z,58.92
2022-10-05T15:40:54.311Z,59.43
2022-10-05T15:43:22.973Z,59.73
2022-10-05T15:46:05.248Z,59.98
2022-10-05T15:49:05.232Z,60.68
2022-10-05T15:51:54.975Z,61.02
2022-10-05T15:54:49.393Z,61.42
2022-10-05T15:57:44.992Z,62.28
2022-10-05T16:00:19.040Z,62.86
2022-10-05T16:02:55.023Z,64.34
2022-10-05T16:06:02.562Z,65.12
2022-10-05T16:08:50.810Z,65.76
2022-10-05T16:11:57.189Z,66.20
2022-10-05T16:14:48.601Z,67.42
2022-10-05T16:17:40.434Z,68.02
2022-10-05T16:20:23.140Z,70.15
2022-10-05T16:23:18.146Z,69.60
2022-10-05T16:26:13.396Z,71.23
2022-10-05T16:28:59.253Z,70.09
2022-10-05T16:32:07.880Z,71.23
2022-10-05T16:34:56.034Z,70.11
2022-10-05T16:37:44.883Z,70.46
2022-10-05T16:40:51.769Z,71.30
2022-10-05T16:43:52.645Z,73.21
2022-10-05T16:46:36.833Z,71.83
2022-10-05T16:49:41.200Z,72.06
2022-10-05T16:52:15.485Z,72.09
2022-10-05T16:54:53.514Z,72.28
2022-10-05T16:57:32.023Z,72.59
2022-10-05T17:00:15.992Z,75.83
2022-10-05T17:02:52.701Z,75.56
2022-10-05T17:05:43.964Z,75.00
2022-10-05T17:08:39.076Z,74.17
2022-10-05T17:11:29.166Z,75.04
2022-10-05T17:14:16.403Z,74.84
2022-10-05T17:16:43.086Z,74.52
2022-10-05T17:19:21.334Z,74.60
2022-10-05T17:22:00.193Z,76.83
2022-10-05T17:24:35.315Z,75.43
2022-10-05T17:27:27.708Z,75.60
2022-10-05T17:30:15.587Z,75.35
2022-10-05T17:33:04.132Z,75.95
2022-10-05T17:35:39.989Z,76.10
2022-10-05T17:38:41.379Z,76.47
2022-10-05T17:41:30.728Z,76.56
2022-10-05T17:44:06.584Z,77.14
2022-10-05T17:46:38.225Z,77.83
2022-10-05T17:49:11.423Z,77.86
2022-10-05T17:51:56.838Z,77.23
2022-10-05T17:55:10.034Z,77.19
2022-10-05T17:57:39.138Z,76.93
2022-10-05T18:00:24.620Z,76.13
2022-10-05T18:02:56.108Z,75.09
2022-10-05T18:05:30.596Z,75.38
2022-10-05T18:08:12.802Z,75.71
2022-10-05T18:11:10.674Z,76.46
2022-10-05T18:13:49.572Z,77.02
2022-10-05T18:16:54.263Z,76.99
2022-10-05T18:19:22.741Z,77.74
2022-10-05T18:22:03.087Z,77.50
2022-10-05T18:24:40.973Z,77.49
2022-10-05T18:27:30.777Z,79.32
2022-10-05T18:30:22.804Z,79.11
2022-10-05T18:33:24.781Z,78.60
2022-10-05T18:36:09.429Z,77.94
2022-10-05T18:38:48.656Z,77.80
2022-10-05T18:41:26.344Z,77.66
2022-10-05T18:44:14.511Z,77.55
2022-10-05T18:47:01.543Z,78.29
2022-10-05T18:49:51.306Z,77.30
2022-10-05T18:52:43.548Z,76.27
2022-10-05T18:55:32.312Z,76.74
2022-10-05T18:58:17.370Z,76.97
2022-10-05T19:00:59.601Z,78.02
2022-10-05T19:03:52.614Z,77.29
2022-10-05T19:06:23.806Z,76.48
2022-10-05T19:09:00.795Z,77.33
2022-10-05T19:11:34.272Z,77.89
2022-10-05T19:14:15.966Z,78.95
2022-10-05T19:17:19.257Z,78.26
2022-10-05T19:20:06.471Z,79.95
2022-10-05T19:23:01.599Z,80.33
2022-10-05T19:26:02.843Z,78.44
2022-10-05T19:28:36.806Z,77.76
2022-10-05T19:31:41.799Z,78.03
2022-10-05T19:34:37.742Z,77.15
2022-10-05T19:37:14.294Z,79.93
2022-10-05T19:39:54.552Z,78.87
2022-10-05T19:42:40.845Z,79.45
2022-10-05T19:45:24.382Z,79.49
2022-10-05T19:48:03.418Z,78.59
2022-10-05T19:50:33.419Z,78.89
2022-10-05T19:53:16.597Z,77.98
2022-10-05T19:55:46.654Z,77.97
2022-10-05T19:58:21.108Z,78.53
2022-10-05T20:01:04.541Z,78.33
2022-10-05T20:03:36.740Z,79.02
2022-10-05T20:06:06.269Z,80.31
2022-10-05T20:08:42.553Z,79.75
2022-10-05T20:11:16.078Z,78.76
2022-10-05T20:13:46.656Z,79.09
2022-10-05T20:16:37.417Z,78.96
2022-10-05T20:19:43.590Z,80.39
2022-10-05T20:22:25.964Z,78.73
2022-10-05T20:25:06.053Z,78.79
2022-10-05T20:27:38.896Z,79.93
2022-10-05T20:30:07.622Z,80.54
2022-10-05T20:32:34.259Z,80.46
2022-10-05T20:35:01.317Z,79.33
2022-10-05T20:37:28.160Z,79.35
2022-10-05T20:39:55.009Z,79.48
2022-10-05T20:42:23.380Z,78.77
2022-10-05T20:44:55.800Z,77.83
2022-10-05T20:47:24.564Z,77.21
2022-10-05T20:49:52.892Z,77.97
2022-10-05T20:52:20.398Z,77.42
2022-10-05T20:54:47.425Z,77.45
2022-10-05T20:57:14.192Z,77.17
2022-10-05T20:59:41.025Z,76.78
2022-10-05T21:02:07.861Z,77.05
2022-10-05T21:04:40.254Z,77.85
2022-10-05T21:07:08.116Z,76.96
2022-10-05T21:09:37.846Z,76.80
2022-10-05T21:12:04.667Z,76.70
2022-10-05T21:14:33.696Z,76.51
2022-10-05T21:17:01.530Z,76.39
2022-10-05T21:19:29.092Z,77.65
2022-10-05T21:22:02.073Z,77.76
2022-10-05T21:24:28.927Z,77.68
2022-10-05T21:26:57.032Z,78.87
2022-10-05T21:29:23.845Z,77.64
2022-10-05T21:31:50.741Z,77.09
2022-10-05T21:34:17.639Z,76.80
2022-10-05T21:36:44.244Z,76.49
2022-10-05T21:39:11.031Z,76.38
2022-10-05T21:41:37.871Z,76.34
2022-10-05T21:44:06.354Z,77.92
2022-10-05T21:46:35.549Z,78.54
2022-10-05T21:49:03.268Z,77.95
2022-10-05T21:51:30.153Z,78.11
2022-10-05T21:54:06.308Z,77.88
2022-10-05T21:56:36.623Z,78.87
2022-10-05T21:59:07.062Z,79.69
2022-10-05T22:01:35.562Z,80.73
2022-10-05T22:04:04.350Z,80.55
2022-10-05T22:06:32.119Z,80.13
2022-10-05T22:08:59.363Z,79.95
2022-10-05T22:11:27.643Z,78.98
2022-10-05T22:14:01.588Z,78.93
2022-10-05T22:16:35.957Z,79.54
2022-10-05T22:19:05.394Z,78.52
2022-10-05T22:21:37.342Z,78.59
2022-10-05T22:24:04.592Z,77.95
2022-10-05T22:26:32.170Z,78.76
2022-10-05T22:29:01.256Z,80.41
2022-10-05T22:31:28.183Z,79.57
2022-10-05T22:33:55.049Z,78.58
2022-10-05T22:36:22.395Z,77.75
2022-10-05T22:38:49.444Z,78.10
2022-10-05T22:41:17.928Z,78.86
2022-10-05T22:43:49.372Z,79.37
2022-10-05T22:46:16.808Z,79.34
2022-10-05T22:48:44.455Z,79.68
2022-10-05T22:51:12.380Z,80.05
2022-10-05T22:53:39.222Z,80.36
2022-10-05T22:56:09.028Z,80.91
2022-10-05T22:58:36.805Z,83.21
2022-10-05T23:01:05.763Z,82.34
2022-10-05T23:03:33.572Z,81.81
2022-10-05T23:06:03.928Z,82.79
2022-10-05T23:08:32.853Z,82.20
2022-10-05T23:11:12.549Z,81.87
2022-10-05T23:13:40.394Z,82.00
2022-10-05T23:16:16.068Z,85.43
2022-10-05T23:18:43.926Z,85.81
2022-10-05T23:21:11.265Z,84.29
2022-10-05T23:23:40.369Z,85.05
2022-10-05T23:26:09.974Z,85.07
2022-10-05T23:28:46.041Z,83.25
2022-10-05T23:31:16.025Z,84.32
2022-10-05T23:33:43.421Z,84.07
2022-10-05T23:36:22.243Z,83.61
2022-10-05T23:38:50.313Z,85.76
2022-10-05T23:41:19.316Z,86.50
2022-10-05T23:43:46.862Z,86.78
2022-10-05T23:46:14.093Z,85.59
2022-10-05T23:48:40.970Z,84.43
2022-10-05T23:51:10.306Z,83.58
2022-10-05T23:53:37.417Z,85.95
2022-10-05T23:56:04.779Z,85.29
2022-10-05T23:58:32.114Z,83.75
